Aviation Digital Data Service (ADDS)

Output produced by METARs form (1259 UTC 16 July 2019)
found at http://www.aviationweather.gov/metar/data/
 
TAF CYYZ 161139Z 1612/1718 16010KT P6SM FEW150 SCT250 
     BECMG 1613/1615 25012G22KT 
     FM161600 25015G27KT P6SM SCT060 
     TEMPO 1616/1619 BKN060 
     FM161900 25015G27KT P6SM -SHRA BKN040 BKN090 
     FM162200 24012G22KT P6SM -SHRA BKN020 OVC050 
     FM170600 24008KT 6SM -SHRA BR SCT008 BKN020 OVC050 
     PROB30 1706/1710 VRB15G25KT 2SM TSRA BR BKN008 OVC020CB 
     FM171600 20008KT P6SM -SHRA BKN030 
     PROB30 1716/1718 VRB15G25KT 11/2SM +TSRA BR BKN015 OVC030CB RMK NXT FCST BY
161500Z